Time;durP1;ratioP1;P1;durP2;ratioP2;P2;SDS_P1;SDS_P2;PMS_P1;PMS_P2;Temp;Humidity;BMP_temperature;BMP_pressure;BME280_temperature;BME280_humidity;BME280_pressure;Samples;Min_cycle;Max_cycle;Signal;HPM_P1;HPM_P2
2022/04/23 00:04:56;;;;;;;;;;;;;;;12.71;53.36426;100771.7;;;;-85
2022/04/23 00:09:57;;;;;;;;;;;;;;;12.68;53.26953;100773;;;;-82
2022/04/23 00:14:56;;;;;;;;;;;;;;;12.62;53.68945;100769.2;;;;-84
2022/04/23 00:19:55;;;;;;;;;;;;;;;12.55;53.81445;100765.2;;;;-81
2022/04/23 00:22:25;;;;;;;8.1;3.7;;;;;;;;;;;;;-83
2022/04/23 00:25:02;;;;;;;;;;;;;;;12.53;53.63281;100764.9;;;;-83
2022/04/23 00:29:56;;;;;;;;;;;;;;;12.48;54.01855;100760.6;;;;-84
2022/04/23 00:34:59;;;;;;;;;;;;;;;12.43;54.14746;100761;;;;-84
2022/04/23 00:39:56;;;;;;;;;;;;;;;12.39;53.98633;100763.4;;;;-83
2022/04/23 00:45:00;;;;;;;;;;;;;;;12.32;54.26953;100759.9;;;;-82
2022/04/23 00:49:56;;;;;;;;;;;;;;;12.29;54.70117;100762.7;;;;-83
2022/04/23 00:52:24;;;;;;;8.5;4.2;;;;;;;;;;;;;-83
2022/04/23 00:54:56;;;;;;;;;;;;;;;12.22;55.25195;100761.1;;;;-83
2022/04/23 00:59:57;;;;;;;;;;;;;;;12.17;55.68262;100761.7;;;;-84
2022/04/23 01:04:56;;;;;;;;;;;;;;;12.14;55.80078;100766.1;;;;-82
2022/04/23 01:09:56;;;;;;;;;;;;;;;12.1;56.12012;100757.1;;;;-84
2022/04/23 01:15:05;;;;;;;;;;;;;;;12.08;56.40723;100757.5;;;;-83
2022/04/23 01:19:56;;;;;;;;;;;;;;;12.05;56.33789;100753.5;;;;-83
2022/04/23 01:22:31;;;;;;;9.9;4.9;;;;;;;;;;;;;-83
2022/04/23 01:25:10;;;;;;;;;;;;;;;12.01;56.6582;100756.4;;;;-84
2022/04/23 01:29:55;;;;;;;;;;;;;;;11.96;56.99707;100756.4;;;;-83
2022/04/23 01:35:04;;;;;;;;;;;;;;;11.93;57.01465;100757.2;;;;-83
2022/04/23 01:39:55;;;;;;;;;;;;;;;11.89;57.6123;100756.3;;;;-84
2022/04/23 01:44:56;;;;;;;;;;;;;;;11.83;57.64941;100756.6;;;;-82
2022/04/23 01:49:55;;;;;;;;;;;;;;;11.8;58.00391;100750.5;;;;-84
2022/04/23 01:52:27;;;;;;;12.2;7.5;;;;;;;;;;;;;-83
2022/04/23 01:54:57;;;;;;;;;;;;;;;11.77;58.00977;100751.8;;;;-84
2022/04/23 01:59:56;;;;;;;;;;;;;;;11.73;57.9502;100748.3;;;;-83
2022/04/23 02:04:58;;;;;;;;;;;;;;;11.71;57.98145;100750.4;;;;-82
2022/04/23 02:09:56;;;;;;;;;;;;;;;11.71;58.30273;100754.2;;;;-83
2022/04/23 02:14:57;;;;;;;;;;;;;;;11.68;58.44531;100752.8;;;;-84
2022/04/23 02:19:55;;;;;;;;;;;;;;;11.68;58.41211;100757.2;;;;-82
2022/04/23 02:22:28;;;;;;;16.3;8.9;;;;;;;;;;;;;-85
2022/04/23 02:24:56;;;;;;;;;;;;;;;11.67;58.60059;100755.8;;;;-84
2022/04/23 02:29:56;;;;;;;;;;;;;;;11.65;58.78809;100757;;;;-83
2022/04/23 02:34:55;;;;;;;;;;;;;;;11.62;59.20898;100756.8;;;;-83
2022/04/23 02:39:55;;;;;;;;;;;;;;;11.6;59.10449;100750;;;;-84
2022/04/23 02:44:56;;;;;;;;;;;;;;;11.6;58.9375;100752.2;;;;-84
2022/04/23 02:49:55;;;;;;;;;;;;;;;11.61;58.87109;100749.3;;;;-83
2022/04/23 02:52:28;;;;;;;19.2;9.5;;;;;;;;;;;;;-84
2022/04/23 02:54:56;;;;;;;;;;;;;;;11.62;59.19629;100755.8;;;;-84
2022/04/23 02:59:55;;;;;;;;;;;;;;;11.61;59.55273;100755.5;;;;-82
2022/04/23 03:04:56;;;;;;;;;;;;;;;11.64;59.04395;100754.1;;;;-82
2022/04/23 03:09:55;;;;;;;;;;;;;;;11.65;60.10547;100752.6;;;;-85
2022/04/23 03:14:57;;;;;;;;;;;;;;;11.66;60.15137;100755.2;;;;-84
2022/04/23 03:19:57;;;;;;;;;;;;;;;11.67;60.11914;100751;;;;-83
2022/04/23 03:22:28;;;;;;;18.4;10.4;;;;;;;;;;;;;-84
2022/04/23 03:24:55;;;;;;;;;;;;;;;11.68;59.9082;100752.9;;;;-82
2022/04/23 03:29:56;;;;;;;;;;;;;;;11.67;60.08496;100749.8;;;;-83
2022/04/23 03:34:59;;;;;;;;;;;;;;;11.66;60.06152;100756.3;;;;-84
2022/04/23 03:39:57;;;;;;;;;;;;;;;11.64;60.31445;100759.7;;;;-82
2022/04/23 03:44:55;;;;;;;;;;;;;;;11.59;60.53125;100758.6;;;;-84
2022/04/23 03:49:56;;;;;;;;;;;;;;;11.55;60.89355;100751.8;;;;-83
2022/04/23 03:52:28;;;;;;;17.7;10.2;;;;;;;;;;;;;-83
2022/04/23 03:54:55;;;;;;;;;;;;;;;11.5;61.48926;100753.7;;;;-83
2022/04/23 04:00:06;;;;;;;;;;;;;;;11.5;60.93164;100758.7;;;;-83
2022/04/23 04:04:56;;;;;;;;;;;;;;;11.45;60.75781;100761.3;;;;-83
2022/04/23 04:09:55;;;;;;;;;;;;;;;11.41;60.81738;100764.4;;;;-82
2022/04/23 04:14:57;;;;;;;;;;;;;;;11.35;60.39844;100767.1;;;;-83
2022/04/23 04:19:58;;;;;;;;;;;;;;;11.28;60.76758;100767;;;;-83
2022/04/23 04:22:28;;;;;;;16.8;9.6;;;;;;;;;;;;;-83
2022/04/23 04:24:57;;;;;;;;;;;;;;;11.23;61.03809;100760.6;;;;-82
2022/04/23 04:29:57;;;;;;;;;;;;;;;11.2;60.99121;100765.1;;;;-84
2022/04/23 04:34:55;;;;;;;;;;;;;;;11.15;61.19531;100758.4;;;;-83
2022/04/23 04:39:58;;;;;;;;;;;;;;;11.12;61.52441;100759.4;;;;-84
2022/04/23 04:45:03;;;;;;;;;;;;;;;11.09;61.6543;100758.7;;;;-85
2022/04/23 04:50:00;;;;;;;;;;;;;;;11.05;61.64941;100758.1;;;;-81
2022/04/23 04:52:30;;;;;;;17.2;9.3;;;;;;;;;;;;;-82
2022/04/23 04:55:00;;;;;;;;;;;;;;;11.04;61.87109;100759.2;;;;-82
2022/04/23 05:00:01;;;;;;;;;;;;;;;11.03;61.37988;100764;;;;-83
2022/04/23 05:04:56;;;;;;;;;;;;;;;11.02;62.40137;100765.4;;;;-82
2022/04/23 05:09:56;;;;;;;;;;;;;;;11;62.07617;100760.7;;;;-84
2022/04/23 05:14:57;;;;;;;;;;;;;;;11.01;61.93262;100773.9;;;;-84
2022/04/23 05:19:56;;;;;;;;;;;;;;;10.99;62.34082;100766.1;;;;-84
2022/04/23 05:22:34;;;;;;;14.2;8.7;;;;;;;;;;;;;-83
2022/04/23 05:24:55;;;;;;;;;;;;;;;10.98;62.31836;100768.5;;;;-77
2022/04/23 05:29:55;;;;;;;;;;;;;;;10.99;62.06445;100769.3;;;;-75
2022/04/23 05:34:56;;;;;;;;;;;;;;;11.02;61.81152;100766.5;;;;-77
2022/04/23 05:39:58;;;;;;;;;;;;;;;11.06;61.83984;100777.7;;;;-77
2022/04/23 05:44:55;;;;;;;;;;;;;;;11.09;61.57617;100765.7;;;;-79
2022/04/23 05:49:58;;;;;;;;;;;;;;;11.09;61.82324;100772;;;;-76
2022/04/23 05:52:31;;;;;;;12.6;7.5;;;;;;;;;;;;;-76
2022/04/23 05:54:55;;;;;;;;;;;;;;;11.09;61.87695;100771.1;;;;-76
2022/04/23 05:59:56;;;;;;;;;;;;;;;11.11;62.16992;100772.8;;;;-77
2022/04/23 06:04:55;;;;;;;;;;;;;;;11.17;61.7666;100762.1;;;;-77
2022/04/23 06:09:55;;;;;;;;;;;;;;;11.23;62.21973;100757.3;;;;-77
2022/04/23 06:14:56;;;;;;;;;;;;;;;11.34;61.76855;100757.3;;;;-77
2022/04/23 06:19:55;;;;;;;;;;;;;;;11.49;61.47656;100752.3;;;;-77
2022/04/23 06:22:35;;;;;;;15.5;8.1;;;;;;;;;;;;;-78
2022/04/23 06:24:57;;;;;;;;;;;;;;;11.63;61.2627;100754.3;;;;-78
2022/04/23 06:29:55;;;;;;;;;;;;;;;11.81;60.79492;100748.8;;;;-76
2022/04/23 06:34:57;;;;;;;;;;;;;;;11.97;60.60645;100751;;;;-77
2022/04/23 06:39:55;;;;;;;;;;;;;;;12.24;60.09766;100740.5;;;;-77
2022/04/23 06:44:55;;;;;;;;;;;;;;;12.65;59.60449;100743.8;;;;-77
2022/04/23 06:49:56;;;;;;;;;;;;;;;13.04;58.5498;100741.4;;;;-76
2022/04/23 06:52:33;;;;;;;12.4;7.6;;;;;;;;;;;;;-76
2022/04/23 06:54:58;;;;;;;;;;;;;;;13.36;57.875;100743.5;;;;-75
2022/04/23 06:59:58;;;;;;;;;;;;;;;13.7;57.16602;100739.2;;;;-76
2022/04/23 07:04:55;;;;;;;;;;;;;;;13.96;56.57227;100740.5;;;;-77
2022/04/23 07:09:55;;;;;;;;;;;;;;;14.19;55.9502;100740.1;;;;-78
2022/04/23 07:14:55;;;;;;;;;;;;;;;14.4;55.4375;100741.5;;;;-76
2022/04/23 07:19:55;;;;;;;;;;;;;;;14.55;55.1748;100732.4;;;;-76
2022/04/23 07:22:34;;;;;;;11.5;7.4;;;;;;;;;;;;;-78
2022/04/23 07:24:55;;;;;;;;;;;;;;;14.83;54.6123;100724.3;;;;-76
2022/04/23 07:29:55;;;;;;;;;;;;;;;14.98;54.11426;100728.8;;;;-76
2022/04/23 07:39:55;;;;;;;;;;;;;;;15.07;53.68457;100731.4;;;;-76
2022/04/23 07:44:55;;;;;;;;;;;;;;;15.22;53.44336;100724.5;;;;-77
2022/04/23 07:49:59;;;;;;;;;;;;;;;15.44;52.94043;100725.1;;;;-76
2022/04/23 07:52:35;;;;;;;13.6;7.3;;;;;;;;;;;;;-75
2022/04/23 07:54:55;;;;;;;;;;;;;;;15.65;52.55957;100718.7;;;;-76
2022/04/23 08:00:01;;;;;;;;;;;;;;;16.02;52.02734;100728.1;;;;-76
2022/04/23 08:04:55;;;;;;;;;;;;;;;16.28;51.34668;100720.3;;;;-77
2022/04/23 08:09:55;;;;;;;;;;;;;;;16.42;50.9668;100713.1;;;;-76
2022/04/23 08:14:55;;;;;;;;;;;;;;;16.65;50.7207;100717.9;;;;-78
2022/04/23 08:19:55;;;;;;;;;;;;;;;16.87;50.11133;100704;;;;-77
2022/04/23 08:22:38;;;;;;;11.6;7.4;;;;;;;;;;;;;-77
2022/04/23 08:24:58;;;;;;;;;;;;;;;17.06;49.71484;100711.7;;;;-75
2022/04/23 08:34:55;;;;;;;;;;;;;;;17.49;48.90039;100702.3;;;;-77
2022/04/23 08:39:56;;;;;;;;;;;;;;;17.71;48.28906;100700.1;;;;-75
2022/04/23 08:44:57;;;;;;;;;;;;;;;17.89;47.64941;100694.4;;;;-75
2022/04/23 08:49:58;;;;;;;;;;;;;;;18.06;47.30469;100689.2;;;;-76
2022/04/23 08:52:39;;;;;;;13.2;7.7;;;;;;;;;;;;;-75
2022/04/23 08:54:56;;;;;;;;;;;;;;;18.27;46.66699;100688.6;;;;-77
2022/04/23 08:59:56;;;;;;;;;;;;;;;18.47;46.24316;100692;;;;-76
2022/04/23 09:04:58;;;;;;;;;;;;;;;18.64;45.95508;100685;;;;-78
2022/04/23 09:09:56;;;;;;;;;;;;;;;18.86;45.30566;100683.5;;;;-76
2022/04/23 09:14:58;;;;;;;;;;;;;;;19.03;45.11816;100681;;;;-76
2022/04/23 09:24:56;;;;;;;;;;;;;;;19.58;44.2832;100681.6;;;;-76
2022/04/23 09:30:05;;;;;;;;;;;;;;;19.78;43.50391;100696.4;;;;-77
2022/04/23 09:35:05;;;;;;;;;;;;;;;19.91;43.19629;100687.1;;;;-78
2022/04/23 09:39:55;;;;;;;;;;;;;;;20.09;43.07617;100681.5;;;;-76
2022/04/23 09:44:57;;;;;;;;;;;;;;;20.32;42.91504;100676.3;;;;-77
2022/04/23 09:50:02;;;;;;;;;;;;;;;20.64;42.88965;100679.1;;;;-77
2022/04/23 09:52:45;;;;;;;14.2;9.1;;;;;;;;;;;;;-76
2022/04/23 09:54:55;;;;;;;;;;;;;;;20.95;41.99023;100667;;;;-78
2022/04/23 09:59:57;;;;;;;;;;;;;;;21.25;41.45801;100657.6;;;;-77
2022/04/23 10:05:01;;;;;;;;;;;;;;;21.5;41.13574;100666.1;;;;-78
2022/04/23 10:09:58;;;;;;;;;;;;;;;21.66;40.69141;100675.4;;;;-77
2022/04/23 10:15:07;;;;;;;;;;;;;;;21.84;39.89258;100657.6;;;;-77
2022/04/23 10:18:47;;;;;;;;;;;;;;;21.93;40.02734;100655.4;;;;-77
2022/04/23 10:22:51;;;;;;;14.9;9.2;;;;;;;;;;;;;-76
2022/04/23 10:23:53;;;;;;;;;;;;;;;22.02;39.02344;100646;;;;-78
2022/04/23 10:28:49;;;;;;;;;;;;;;;22.15;39.32129;100647.1;;;;-79
2022/04/23 10:33:49;;;;;;;;;;;;;;;22.32;38.8877;100649.6;;;;-79
2022/04/23 10:38:51;;;;;;;;;;;;;;;22.47;38.64844;100640.2;;;;-77
2022/04/23 10:43:56;;;;;;;;;;;;;;;22.66;38.53906;100640.4;;;;-76
2022/04/23 10:48:52;;;;;;;;;;;;;;;22.92;38.41016;100640.6;;;;-78
2022/04/23 10:52:53;;;;;;;15.9;10.1;;;;;;;;;;;;;-77
2022/04/23 10:53:58;;;;;;;;;;;;;;;23.18;38.0752;100643.3;;;;-78
2022/04/23 10:58:46;;;;;;;;;;;;;;;23.32;38.2373;100634.8;;;;-77
2022/04/23 11:03:46;;;;;;;;;;;;;;;23.56;37.68066;100637.5;;;;-75
2022/04/23 11:13:46;;;;;;;;;;;;;;;23.87;37.26855;100631.3;;;;-79
2022/04/23 11:18:46;;;;;;;;;;;;;;;24;37.49805;100627.1;;;;-77
2022/04/23 11:22:54;;;;;;;16.9;9.9;;;;;;;;;;;;;-78
2022/04/23 11:23:47;;;;;;;;;;;;;;;24.19;37.04004;100630.6;;;;-75
2022/04/23 11:28:47;;;;;;;;;;;;;;;24.33;36.72754;100624.5;;;;-76
2022/04/23 11:33:56;;;;;;;;;;;;;;;24.45;36.59961;100619.1;;;;-77
2022/04/23 11:38:46;;;;;;;;;;;;;;;24.38;35.64453;100622.7;;;;-79
2022/04/23 11:43:46;;;;;;;;;;;;;;;24.39;36.05078;100614.5;;;;-79
2022/04/23 11:48:54;;;;;;;;;;;;;;;24.45;35.44238;100606;;;;-76
2022/04/23 11:53:05;;;;;;;18.1;10.2;;;;;;;;;;;;;-76
2022/04/23 11:53:57;;;;;;;;;;;;;;;24.42;35.48535;100602.8;;;;-78
2022/04/23 11:58:46;;;;;;;;;;;;;;;24.42;35.27734;100612.3;;;;-77
2022/04/23 12:03:55;;;;;;;;;;;;;;;24.5;35.13379;100608.5;;;;-79
2022/04/23 12:08:54;;;;;;;;;;;;;;;24.58;35.15137;100598.8;;;;-77
2022/04/23 12:13:47;;;;;;;;;;;;;;;24.7;34.68555;100586.1;;;;-75
2022/04/23 12:18:46;;;;;;;;;;;;;;;24.81;34.9375;100589.5;;;;-78
2022/04/23 12:23:05;;;;;;;17.3;9.3;;;;;;;;;;;;;-76
2022/04/23 12:23:53;;;;;;;;;;;;;;;24.95;34.63672;100585.5;;;;-77
2022/04/23 12:43:49;;;;;;;;;;;;;;;24.96;34.3125;100576.2;;;;-76
2022/04/23 12:48:57;;;;;;;;;;;;;;;24.91;33.84473;100570.8;;;;-76
2022/04/23 12:53:01;;;;;;;15.4;8.3;;;;;;;;;;;;;-74
2022/04/23 12:53:58;;;;;;;;;;;;;;;24.81;33.89453;100569;;;;-78
2022/04/23 12:58:55;;;;;;;;;;;;;;;24.74;33.85547;100560.6;;;;-79
2022/04/23 13:11:53;;;;;;;;;;;;;;;24.55;33.88672;100557.5;;;;-79
2022/04/23 13:16:53;;;;;;;;;;;;;;;24.44;34.20313;100558.6;;;;-78
2022/04/23 13:21:53;;;;;;;;;;;;;;;24.31;33.7998;100550.9;;;;-78
2022/04/23 13:23:05;;;;;;;15.2;8.6;;;;;;;;;;;;;-77
2022/04/23 13:26:53;;;;;;;;;;;;;;;24.39;34.33887;100545.9;;;;-79
2022/04/23 13:31:54;;;;;;;;;;;;;;;24.48;33.91602;100550.6;;;;-78
2022/04/23 13:36:53;;;;;;;;;;;;;;;24.61;33.90332;100529.3;;;;-78
2022/04/23 13:41:53;;;;;;;;;;;;;;;24.88;32.83398;100532.1;;;;-77
2022/04/23 13:46:54;;;;;;;;;;;;;;;25.05;32.46387;100524.5;;;;-78
2022/04/23 13:51:54;;;;;;;;;;;;;;;25.05;32.73047;100514.1;;;;-76
2022/04/23 13:53:11;;;;;;;12.2;7.7;;;;;;;;;;;;;-78
2022/04/23 13:56:53;;;;;;;;;;;;;;;24.99;32.27344;100515.6;;;;-77
2022/04/23 14:11:54;;;;;;;;;;;;;;;25;32.40234;100510.1;;;;-79
2022/04/23 14:16:53;;;;;;;;;;;;;;;25.02;32.31055;100502;;;;-79
2022/04/23 14:21:55;;;;;;;;;;;;;;;25.02;32.49609;100498;;;;-78
2022/04/23 14:23:12;;;;;;;13.7;7.3;;;;;;;;;;;;;-79
2022/04/23 14:26:53;;;;;;;;;;;;;;;25.02;32.63574;100490.6;;;;-78
2022/04/23 14:31:56;;;;;;;;;;;;;;;25.14;32.43457;100489;;;;-77
2022/04/23 14:36:53;;;;;;;;;;;;;;;25.1;32.01465;100487.1;;;;-79
2022/04/23 14:41:54;;;;;;;;;;;;;;;25.04;32.0332;100490.1;;;;-77
2022/04/23 14:46:56;;;;;;;;;;;;;;;24.93;32.06152;100480.2;;;;-79
2022/04/23 14:53:15;;;;;;;11.4;6.6;;;;;;;;;;;;;-76
2022/04/23 14:56:56;;;;;;;;;;;;;;;24.81;31.72754;100479.6;;;;-78
2022/04/23 15:01:53;;;;;;;;;;;;;;;24.81;32.09863;100473.5;;;;-78
2022/04/23 15:06:54;;;;;;;;;;;;;;;24.83;31.96094;100475.5;;;;-78
2022/04/23 15:11:56;;;;;;;;;;;;;;;24.75;31.75879;100471.5;;;;-77
2022/04/23 15:16:53;;;;;;;;;;;;;;;24.65;31.94824;100472.2;;;;-80
2022/04/23 15:21:53;;;;;;;;;;;;;;;24.66;32.33105;100468.7;;;;-76
2022/04/23 15:23:20;;;;;;;10.1;5.9;;;;;;;;;;;;;-76
2022/04/23 15:26:55;;;;;;;;;;;;;;;24.61;31.80566;100475;;;;-80
2022/04/23 15:31:53;;;;;;;;;;;;;;;24.38;31.98633;100472.5;;;;-79
2022/04/23 15:36:54;;;;;;;;;;;;;;;24.3;32.24805;100469.7;;;;-76
2022/04/23 15:41:53;;;;;;;;;;;;;;;24.3;32.24707;100476.8;;;;-77
2022/04/23 15:46:53;;;;;;;;;;;;;;;24.21;32.4375;100473.9;;;;-77
2022/04/23 15:51:56;;;;;;;;;;;;;;;24.17;32.37695;100474.2;;;;-83
2022/04/23 15:53:24;;;;;;;8;5.6;;;;;;;;;;;;;-84
2022/04/23 15:56:58;;;;;;;;;;;;;;;24.03;32.2168;100482.4;;;;-84
2022/04/23 16:02:01;;;;;;;;;;;;;;;23.96;32.39648;100478.3;;;;-84
2022/04/23 16:06:53;;;;;;;;;;;;;;;23.71;32.48242;100479;;;;-84
2022/04/23 16:11:54;;;;;;;;;;;;;;;23.57;32.69141;100479.6;;;;-84
2022/04/23 16:16:58;;;;;;;;;;;;;;;23.54;32.80566;100476.3;;;;-83
2022/04/23 16:21:59;;;;;;;;;;;;;;;23.41;32.83105;100477.1;;;;-84
2022/04/23 16:23:25;;;;;;;8.3;5.4;;;;;;;;;;;;;-84
2022/04/23 16:26:53;;;;;;;;;;;;;;;23.25;32.96875;100477.7;;;;-83
2022/04/23 16:31:53;;;;;;;;;;;;;;;23.14;33.00684;100476.4;;;;-81
2022/04/23 16:46:53;;;;;;;;;;;;;;;22.85;33.50488;100476.1;;;;-84
2022/04/23 16:51:54;;;;;;;;;;;;;;;22.7;33.66699;100475.3;;;;-83
2022/04/23 16:53:30;;;;;;;8;4.8;;;;;;;;;;;;;-85
2022/04/23 16:56:58;;;;;;;;;;;;;;;22.65;33.8584;100473.2;;;;-83
2022/04/23 17:01:55;;;;;;;;;;;;;;;22.51;33.94043;100471.5;;;;-84
2022/04/23 17:06:56;;;;;;;;;;;;;;;22.31;34.16699;100468.4;;;;-82
2022/04/23 17:11:54;;;;;;;;;;;;;;;22.13;34.28027;100468.1;;;;-83
2022/04/23 17:17:02;;;;;;;;;;;;;;;21.94;34.35742;100466.9;;;;-84
2022/04/23 17:21:56;;;;;;;;;;;;;;;21.75;34.6875;100474.6;;;;-82
2022/04/23 17:23:31;;;;;;;8.8;5;;;;;;;;;;;;;-82
2022/04/23 17:26:57;;;;;;;;;;;;;;;21.54;34.72949;100472.5;;;;-84
2022/04/23 17:31:55;;;;;;;;;;;;;;;21.31;34.87207;100482.8;;;;-85
2022/04/23 17:36:55;;;;;;;;;;;;;;;21.12;35.15625;100483.5;;;;-83
2022/04/23 17:41:57;;;;;;;;;;;;;;;20.85;35.46777;100478.1;;;;-85
2022/04/23 17:46:57;;;;;;;;;;;;;;;20.64;35.45117;100478.8;;;;-84
2022/04/23 17:51:56;;;;;;;;;;;;;;;20.39;35.53516;100487.3;;;;-84
2022/04/23 17:53:34;;;;;;;7.2;4.7;;;;;;;;;;;;;-83
2022/04/23 17:57:07;;;;;;;;;;;;;;;20.12;35.73047;100483.8;;;;-84
2022/04/23 18:12:00;;;;;;;;;;;;;;;19.44;36.17871;100488.6;;;;-85
2022/04/23 18:16:53;;;;;;;;;;;;;;;19.22;36.33301;100489.9;;;;-83
2022/04/23 18:21:53;;;;;;;;;;;;;;;19;36.50879;100491;;;;-83
2022/04/23 18:23:38;;;;;;;6.6;4.1;;;;;;;;;;;;;-86
2022/04/23 18:26:55;;;;;;;;;;;;;;;18.82;36.71191;100500;;;;-82
2022/04/23 18:31:53;;;;;;;;;;;;;;;18.64;36.86719;100497.5;;;;-83
2022/04/23 18:36:57;;;;;;;;;;;;;;;18.47;37.05957;100500.4;;;;-83
2022/04/23 18:41:54;;;;;;;;;;;;;;;18.28;37.25977;100496.4;;;;-82
2022/04/23 18:46:56;;;;;;;;;;;;;;;18.04;37.42188;100493.5;;;;-85
2022/04/23 18:51:54;;;;;;;;;;;;;;;17.86;37.50879;100504.3;;;;-82
2022/04/23 18:53:41;;;;;;;7.8;3.9;;;;;;;;;;;;;-81
2022/04/23 18:56:54;;;;;;;;;;;;;;;17.6;37.62402;100499.4;;;;-82
2022/04/23 19:02:10;;;;;;;;;;;;;;;17.53;37.75488;100518.2;;;;-82
2022/04/23 19:06:57;;;;;;;;;;;;;;;17.35;37.6709;100516.1;;;;-83
2022/04/23 19:11:53;;;;;;;;;;;;;;;17.21;37.95508;100520.8;;;;-85
2022/04/23 19:16:54;;;;;;;;;;;;;;;17.11;38.19531;100522.2;;;;-82
2022/04/23 19:31:54;;;;;;;;;;;;;;;16.69;38.64844;100534.6;;;;-83
2022/04/23 19:36:55;;;;;;;;;;;;;;;16.51;38.88184;100539;;;;-84
2022/04/23 19:41:55;;;;;;;;;;;;;;;16.34;39.15137;100541.3;;;;-82
2022/04/23 19:46:57;;;;;;;;;;;;;;;16.17;39.48828;100546.2;;;;-85
2022/04/23 19:51:58;;;;;;;;;;;;;;;15.98;40.01563;100545.1;;;;-83
2022/04/23 19:53:46;;;;;;;6.5;3.9;;;;;;;;;;;;;-84
2022/04/23 19:56:53;;;;;;;;;;;;;;;15.84;40.17188;100551.1;;;;-81
2022/04/23 20:01:53;;;;;;;;;;;;;;;15.65;40.67578;100545.5;;;;-83
2022/04/23 20:06:59;;;;;;;;;;;;;;;15.51;41.04785;100550.4;;;;-82
2022/04/23 20:11:54;;;;;;;;;;;;;;;15.39;41.24023;100551.1;;;;-83
2022/04/23 20:16:55;;;;;;;;;;;;;;;15.26;41.63574;100549.2;;;;-83
2022/04/23 20:22:04;;;;;;;;;;;;;;;15.14;42.06543;100552.1;;;;-82
2022/04/23 20:23:44;;;;;;;7.8;4.1;;;;;;;;;;;;;-84
2022/04/23 20:26:55;;;;;;;;;;;;;;;15.02;42.73242;100553.3;;;;-84
2022/04/23 20:31:53;;;;;;;;;;;;;;;14.92;42.88086;100554.7;;;;-83
2022/04/23 20:41:54;;;;;;;;;;;;;;;14.67;43.81543;100554.9;;;;-81
2022/04/23 20:46:53;;;;;;;;;;;;;;;14.57;43.83984;100557.7;;;;-84
2022/04/23 20:51:54;;;;;;;;;;;;;;;14.45;44.14355;100560.5;;;;-82
2022/04/23 20:53:45;;;;;;;9.9;3.9;;;;;;;;;;;;;-84
2022/04/23 20:56:53;;;;;;;;;;;;;;;14.35;44.59668;100560.3;;;;-80
2022/04/23 21:01:53;;;;;;;;;;;;;;;14.27;44.79102;100565.5;;;;-81
2022/04/23 21:06:54;;;;;;;;;;;;;;;14.17;45.05273;100562;;;;-81
2022/04/23 21:11:53;;;;;;;;;;;;;;;14.09;45.15625;100562.4;;;;-83
2022/04/23 21:16:53;;;;;;;;;;;;;;;14.01;45.41895;100572.3;;;;-81
2022/04/23 21:21:54;;;;;;;;;;;;;;;13.93;45.60156;100568.8;;;;-84
2022/04/23 21:23:47;;;;;;;6.1;4;;;;;;;;;;;;;-82
2022/04/23 21:26:53;;;;;;;;;;;;;;;13.86;45.65137;100560.2;;;;-80
2022/04/23 21:31:53;;;;;;;;;;;;;;;13.79;45.80176;100556.9;;;;-83
2022/04/23 21:37:13;;;;;;;;;;;;;;;13.7;46.0498;100556.2;;;;-83
2022/04/23 21:46:54;;;;;;;;;;;;;;;13.56;46.54297;100563.5;;;;-81
2022/04/23 21:51:54;;;;;;;;;;;;;;;13.49;46.87305;100562.7;;;;-83
2022/04/23 21:53:49;;;;;;;7.1;4.2;;;;;;;;;;;;;-82
2022/04/23 21:56:56;;;;;;;;;;;;;;;13.45;46.75684;100571.7;;;;-82
2022/04/23 22:01:55;;;;;;;;;;;;;;;13.36;47.03906;100572.1;;;;-83
2022/04/23 22:06:53;;;;;;;;;;;;;;;13.31;47.37109;100572.8;;;;-83
2022/04/23 22:11:54;;;;;;;;;;;;;;;13.26;47.32031;100581.8;;;;-81
2022/04/23 22:16:54;;;;;;;;;;;;;;;13.18;47.7168;100582.5;;;;-82
2022/04/23 22:21:56;;;;;;;;;;;;;;;13.1;48.08984;100595.2;;;;-82
2022/04/23 22:23:49;;;;;;;7.1;4.1;;;;;;;;;;;;;-81
2022/04/23 22:26:53;;;;;;;;;;;;;;;13.02;48.32813;100595.5;;;;-82
2022/04/23 22:31:54;;;;;;;;;;;;;;;12.94;48.08398;100601.1;;;;-82
2022/04/23 22:36:53;;;;;;;;;;;;;;;12.82;48.92285;100594.2;;;;-82
2022/04/23 22:41:55;;;;;;;;;;;;;;;12.71;49.4834;100594.7;;;;-81
2022/04/23 22:46:53;;;;;;;;;;;;;;;12.64;49.62207;100599.8;;;;-82
2022/04/23 22:51:58;;;;;;;;;;;;;;;12.57;49.97266;100600.1;;;;-81
2022/04/23 22:53:51;;;;;;;8.6;5.2;;;;;;;;;;;;;-83
2022/04/23 22:56:54;;;;;;;;;;;;;;;12.53;49.96777;100598.3;;;;-82
2022/04/23 23:01:54;;;;;;;;;;;;;;;12.47;50.45508;100607.8;;;;-82
2022/04/23 23:06:54;;;;;;;;;;;;;;;12.4;51.04004;100604;;;;-82
2022/04/23 23:11:53;;;;;;;;;;;;;;;12.36;51.5625;100605.9;;;;-83
2022/04/23 23:16:53;;;;;;;;;;;;;;;12.33;51.73828;100605.2;;;;-85
2022/04/23 23:21:55;;;;;;;;;;;;;;;12.29;51.70117;100598.5;;;;-81
2022/04/23 23:23:52;;;;;;;11.7;6.6;;;;;;;;;;;;;-84
2022/04/23 23:26:53;;;;;;;;;;;;;;;12.27;51.76465;100596.2;;;;-82
2022/04/23 23:31:53;;;;;;;;;;;;;;;12.25;51.81738;100590.9;;;;-82
2022/04/23 23:36:56;;;;;;;;;;;;;;;12.18;52.02344;100596.1;;;;-79
2022/04/23 23:41:55;;;;;;;;;;;;;;;12.14;52.11816;100596;;;;-83
2022/04/23 23:46:54;;;;;;;;;;;;;;;12.08;52.3457;100596.9;;;;-81
2022/04/23 23:51:53;;;;;;;;;;;;;;;12.02;52.42871;100595.7;;;;-80
2022/04/23 23:53:56;;;;;;;13.5;7;;;;;;;;;;;;;-83
2022/04/23 23:56:53;;;;;;;;;;;;;;;12;52.29199;100596;;;;-81
